sensor_id;sensor_type;location;lat;lon;timestamp;pressure;altitude;pressure_sealevel;temperature;humidity
7441;BME280;29616;51.950;8.572;2023-03-03T00:00:44;100786.13;;;2.55;100.00
7441;BME280;29616;51.950;8.572;2023-03-03T00:03:14;100790.47;;;2.58;100.00
7441;BME280;29616;51.950;8.572;2023-03-03T00:05:43;100777.75;;;2.60;100.00
7441;BME280;29616;51.950;8.572;2023-03-03T00:08:13;100780.28;;;2.63;100.00
7441;BME280;29616;51.950;8.572;2023-03-03T00:10:41;100775.69;;;2.65;100.00
7441;BME280;29616;51.950;8.572;2023-03-03T00:13:15;100776.72;;;2.62;100.00
7441;BME280;29616;51.950;8.572;2023-03-03T00:15:45;100777.50;;;2.49;100.00
7441;BME280;29616;51.950;8.572;2023-03-03T00:18:21;100764.63;;;2.54;100.00
7441;BME280;29616;51.950;8.572;2023-03-03T00:20:52;100755.84;;;2.50;100.00
7441;BME280;29616;51.950;8.572;2023-03-03T00:23:26;100778.47;;;2.63;100.00
7441;BME280;29616;51.950;8.572;2023-03-03T00:25:56;100775.78;;;2.63;100.00
7441;BME280;29616;51.950;8.572;2023-03-03T00:28:29;100762.44;;;2.60;100.00
7441;BME280;29616;51.950;8.572;2023-03-03T00:30:58;100780.63;;;2.72;100.00
7441;BME280;29616;51.950;8.572;2023-03-03T00:33:30;100761.13;;;2.52;100.00
7441;BME280;29616;51.950;8.572;2023-03-03T00:36:21;100786.19;;;2.69;100.00
7441;BME280;29616;51.950;8.572;2023-03-03T00:38:57;100778.22;;;2.68;100.00
7441;BME280;29616;51.950;8.572;2023-03-03T00:41:28;100780.28;;;2.63;100.00
7441;BME280;29616;51.950;8.572;2023-03-03T00:44:30;100773.59;;;2.70;100.00
7441;BME280;29616;51.950;8.572;2023-03-03T00:47:13;100774.34;;;2.72;100.00
7441;BME280;29616;51.950;8.572;2023-03-03T00:49:45;100764.09;;;2.63;100.00
7441;BME280;29616;51.950;8.572;2023-03-03T00:52:17;100767.13;;;2.57;100.00
7441;BME280;29616;51.950;8.572;2023-03-03T00:54:46;100770.88;;;2.70;100.00
7441;BME280;29616;51.950;8.572;2023-03-03T00:57:17;100766.19;;;2.73;100.00
7441;BME280;29616;51.950;8.572;2023-03-03T00:59:48;100769.78;;;2.74;100.00
7441;BME280;29616;51.950;8.572;2023-03-03T01:02:16;100770.38;;;2.79;100.00
7441;BME280;29616;51.950;8.572;2023-03-03T01:04:47;100775.59;;;2.82;100.00
7441;BME280;29616;51.950;8.572;2023-03-03T01:07:18;100776.00;;;2.74;100.00
7441;BME280;29616;51.950;8.572;2023-03-03T01:09:46;100725.53;;;2.45;100.00
7441;BME280;29616;51.950;8.572;2023-03-03T01:12:15;100763.75;;;2.69;100.00
7441;BME280;29616;51.950;8.572;2023-03-03T01:14:45;100757.72;;;2.48;100.00
7441;BME280;29616;51.950;8.572;2023-03-03T01:17:18;100748.53;;;2.52;100.00
7441;BME280;29616;51.950;8.572;2023-03-03T01:19:46;100781.50;;;2.73;100.00
7441;BME280;29616;51.950;8.572;2023-03-03T01:22:15;100772.97;;;2.65;100.00
7441;BME280;29616;51.950;8.572;2023-03-03T01:24:45;100771.66;;;2.72;100.00
7441;BME280;29616;51.950;8.572;2023-03-03T01:27:13;100777.59;;;2.78;100.00
7441;BME280;29616;51.950;8.572;2023-03-03T01:29:41;100782.28;;;2.75;100.00
7441;BME280;29616;51.950;8.572;2023-03-03T01:32:10;100775.16;;;2.74;100.00
7441;BME280;29616;51.950;8.572;2023-03-03T01:34:41;100777.50;;;2.80;100.00
7441;BME280;29616;51.950;8.572;2023-03-03T01:37:11;100774.34;;;2.72;100.00
7441;BME280;29616;51.950;8.572;2023-03-03T01:39:40;100766.25;;;2.72;100.00
7441;BME280;29616;51.950;8.572;2023-03-03T01:42:11;100771.50;;;2.75;100.00
7441;BME280;29616;51.950;8.572;2023-03-03T01:44:40;100769.78;;;2.74;100.00
7441;BME280;29616;51.950;8.572;2023-03-03T01:47:12;100747.13;;;2.61;100.00
7441;BME280;29616;51.950;8.572;2023-03-03T01:49:46;100739.72;;;2.64;100.00
7441;BME280;29616;51.950;8.572;2023-03-03T01:52:21;100748.69;;;2.65;100.00
7441;BME280;29616;51.950;8.572;2023-03-03T01:54:54;100756.88;;;2.79;100.00
7441;BME280;29616;51.950;8.572;2023-03-03T01:57:25;100767.28;;;2.85;100.00
7441;BME280;29616;51.950;8.572;2023-03-03T01:59:58;100779.16;;;2.82;100.00
7441;BME280;29616;51.950;8.572;2023-03-03T02:02:38;100779.53;;;2.76;100.00
7441;BME280;29616;51.950;8.572;2023-03-03T02:05:10;100773.16;;;2.77;100.00
7441;BME280;29616;51.950;8.572;2023-03-03T02:07:42;100771.66;;;2.72;100.00
7441;BME280;29616;51.950;8.572;2023-03-03T02:10:13;100770.38;;;2.79;100.00
7441;BME280;29616;51.950;8.572;2023-03-03T02:12:44;100768.13;;;2.71;100.00
7441;BME280;29616;51.950;8.572;2023-03-03T02:15:16;100778.28;;;2.66;100.00
7441;BME280;29616;51.950;8.572;2023-03-03T02:17:47;100751.44;;;2.47;100.00
7441;BME280;29616;51.950;8.572;2023-03-03T02:20:26;100787.94;;;2.55;100.00
7441;BME280;29616;51.950;8.572;2023-03-03T02:23:00;100773.41;;;2.57;100.00
7441;BME280;29616;51.950;8.572;2023-03-03T02:25:36;100764.63;;;2.54;100.00
7441;BME280;29616;51.950;8.572;2023-03-03T02:28:08;100749.72;;;2.47;100.00
7441;BME280;29616;51.950;8.572;2023-03-03T02:30:38;100767.13;;;2.57;100.00
7441;BME280;29616;51.950;8.572;2023-03-03T02:33:08;100764.16;;;2.61;100.00
7441;BME280;29616;51.950;8.572;2023-03-03T02:35:38;100757.91;;;2.45;100.00
7441;BME280;29616;51.950;8.572;2023-03-03T02:38:16;100774.91;;;2.63;100.00
7441;BME280;29616;51.950;8.572;2023-03-03T02:40:48;100779.69;;;2.58;100.00
7441;BME280;29616;51.950;8.572;2023-03-03T02:43:23;100765.59;;;2.53;100.00
7441;BME280;29616;51.950;8.572;2023-03-03T02:45:55;100748.06;;;2.44;100.00
7441;BME280;29616;51.950;8.572;2023-03-03T02:48:25;100773.91;;;2.64;100.00
7441;BME280;29616;51.950;8.572;2023-03-03T02:50:55;100772.38;;;2.60;100.00
7441;BME280;29616;51.950;8.572;2023-03-03T02:53:25;100770.78;;;2.56;100.00
7441;BME280;29616;51.950;8.572;2023-03-03T02:55:54;100764.00;;;2.49;100.00
7441;BME280;29616;51.950;8.572;2023-03-03T02:58:23;100774.47;;;2.55;100.00
7441;BME280;29616;51.950;8.572;2023-03-03T03:00:51;100779.25;;;2.50;100.00
7441;BME280;29616;51.950;8.572;2023-03-03T03:03:22;100787.50;;;2.47;100.00
7441;BME280;29616;51.950;8.572;2023-03-03T03:05:52;100786.13;;;2.39;100.00
7441;BME280;29616;51.950;8.572;2023-03-03T03:08:22;100783.66;;;2.51;100.00
7441;BME280;29616;51.950;8.572;2023-03-03T03:10:50;100774.19;;;2.59;100.00
7441;BME280;29616;51.950;8.572;2023-03-03T03:13:24;100757.22;;;2.41;100.00
7441;BME280;29616;51.950;8.572;2023-03-03T03:15:53;100762.78;;;2.54;100.00
7441;BME280;29616;51.950;8.572;2023-03-03T03:18:24;100772.38;;;2.60;100.00
7441;BME280;29616;51.950;8.572;2023-03-03T03:20:55;100776.00;;;2.59;100.00
7441;BME280;29616;51.950;8.572;2023-03-03T03:23:26;100773.16;;;2.62;100.00
7441;BME280;29616;51.950;8.572;2023-03-03T03:25:54;100788.72;;;2.57;100.00
7441;BME280;29616;51.950;8.572;2023-03-03T03:28:28;100785.88;;;2.60;100.00
7441;BME280;29616;51.950;8.572;2023-03-03T03:30:59;100764.16;;;2.45;100.00
7441;BME280;29616;51.950;8.572;2023-03-03T03:33:30;100771.75;;;2.55;100.00
7441;BME280;29616;51.950;8.572;2023-03-03T03:35:59;100772.72;;;2.54;100.00
7441;BME280;29616;51.950;8.572;2023-03-03T03:38:30;100744.94;;;2.36;100.00
7441;BME280;29616;51.950;8.572;2023-03-03T03:40:59;100768.09;;;2.56;100.00
7441;BME280;29616;51.950;8.572;2023-03-03T03:43:29;100777.94;;;2.57;100.00
7441;BME280;29616;51.950;8.572;2023-03-03T03:45:59;100765.38;;;2.56;100.00
7441;BME280;29616;51.950;8.572;2023-03-03T03:48:30;100739.63;;;2.34;100.00
7441;BME280;29616;51.950;8.572;2023-03-03T03:51:00;100758.53;;;2.50;100.00
7441;BME280;29616;51.950;8.572;2023-03-03T03:53:32;100777.94;;;2.57;100.00
7441;BME280;29616;51.950;8.572;2023-03-03T03:56:00;100778.09;;;2.54;100.00
7441;BME280;29616;51.950;8.572;2023-03-03T03:58:33;100766.88;;;2.45;100.00
7441;BME280;29616;51.950;8.572;2023-03-03T04:01:06;100734.75;;;2.25;100.00
7441;BME280;29616;51.950;8.572;2023-03-03T04:03:41;100768.78;;;2.43;100.00
7441;BME280;29616;51.950;8.572;2023-03-03T04:06:12;100759.13;;;2.39;100.00
7441;BME280;29616;51.950;8.572;2023-03-03T04:08:41;100764.28;;;2.44;100.00
7441;BME280;29616;51.950;8.572;2023-03-03T04:11:10;100776.00;;;2.59;100.00
7441;BME280;29616;51.950;8.572;2023-03-03T04:13:40;100785.25;;;2.55;100.00
7441;BME280;29616;51.950;8.572;2023-03-03T04:16:08;100785.69;;;2.63;100.00
7441;BME280;29616;51.950;8.572;2023-03-03T04:18:40;100782.28;;;2.59;100.00
7441;BME280;29616;51.950;8.572;2023-03-03T04:21:15;100765.81;;;2.48;100.00
7441;BME280;29616;51.950;8.572;2023-03-03T04:23:45;100753.38;;;2.45;100.00
7441;BME280;29616;51.950;8.572;2023-03-03T04:26:14;100778.47;;;2.63;100.00
7441;BME280;29616;51.950;8.572;2023-03-03T04:28:45;100779.53;;;2.61;100.00
7441;BME280;29616;51.950;8.572;2023-03-03T04:31:15;100777.00;;;2.58;100.00
7441;BME280;29616;51.950;8.572;2023-03-03T04:33:47;100785.25;;;2.55;100.00
7441;BME280;29616;51.950;8.572;2023-03-03T04:36:15;100767.47;;;2.51;100.00
7441;BME280;29616;51.950;8.572;2023-03-03T04:38:47;100770.44;;;2.46;100.00
7441;BME280;29616;51.950;8.572;2023-03-03T04:41:17;100757.66;;;2.34;100.00
7441;BME280;29616;51.950;8.572;2023-03-03T04:43:47;100770.94;;;2.37;100.00
7441;BME280;29616;51.950;8.572;2023-03-03T04:46:16;100773.75;;;2.35;100.00
7441;BME280;29616;51.950;8.572;2023-03-03T04:48:45;100782.25;;;2.28;100.00
7441;BME280;29616;51.950;8.572;2023-03-03T04:51:14;100782.59;;;2.22;100.00
7441;BME280;29616;51.950;8.572;2023-03-03T04:53:46;100784.56;;;2.18;100.00
7441;BME280;29616;51.950;8.572;2023-03-03T04:56:16;100789.91;;;2.20;100.00
7441;BME280;29616;51.950;8.572;2023-03-03T04:58:46;100782.84;;;2.17;100.00
7441;BME280;29616;51.950;8.572;2023-03-03T05:01:16;100793.91;;;2.13;100.00
7441;BME280;29616;51.950;8.572;2023-03-03T05:03:47;100754.84;;;1.87;100.00
7441;BME280;29616;51.950;8.572;2023-03-03T05:06:17;100769.66;;;1.96;100.00
7441;BME280;29616;51.950;8.572;2023-03-03T05:08:47;100804.25;;;1.88;100.00
7441;BME280;29616;51.950;8.572;2023-03-03T05:11:15;100798.88;;;2.03;100.00
7441;BME280;29616;51.950;8.572;2023-03-03T05:13:43;100799.06;;;2.00;100.00
7441;BME280;29616;51.950;8.572;2023-03-03T05:16:14;100807.25;;;1.99;100.00
7441;BME280;29616;51.950;8.572;2023-03-03T05:18:44;100817.88;;;2.02;100.00
7441;BME280;29616;51.950;8.572;2023-03-03T05:21:14;100814.13;;;2.04;100.00
7441;BME280;29616;51.950;8.572;2023-03-03T05:23:43;100789.00;;;1.87;100.00
7441;BME280;29616;51.950;8.572;2023-03-03T05:26:11;100814.34;;;2.00;100.00
7441;BME280;29616;51.950;8.572;2023-03-03T05:28:41;100780.38;;;1.80;100.00
7441;BME280;29616;51.950;8.572;2023-03-03T05:31:09;100809.53;;;1.89;100.00
7441;BME280;29616;51.950;8.572;2023-03-03T05:33:40;100818.75;;;2.02;100.00
7441;BME280;29616;51.950;8.572;2023-03-03T05:36:10;100823.66;;;1.94;100.00
7441;BME280;29616;51.950;8.572;2023-03-03T05:38:39;100832.22;;;1.85;100.00
7441;BME280;29616;51.950;8.572;2023-03-03T05:41:09;100827.25;;;1.77;100.00
7441;BME280;29616;51.950;8.572;2023-03-03T05:43:37;100823.97;;;1.71;100.00
7441;BME280;29616;51.950;8.572;2023-03-03T05:46:05;100799.44;;;1.43;100.00
7441;BME280;29616;51.950;8.572;2023-03-03T05:48:36;100832.78;;;1.57;100.00
7441;BME280;29616;51.950;8.572;2023-03-03T05:51:07;100818.28;;;1.60;100.00
7441;BME280;29616;51.950;8.572;2023-03-03T05:53:38;100814.81;;;1.41;100.00
7441;BME280;29616;51.950;8.572;2023-03-03T05:56:06;100803.06;;;1.42;100.00
7441;BME280;29616;51.950;8.572;2023-03-03T05:58:36;100812.25;;;1.55;100.00
7441;BME280;29616;51.950;8.572;2023-03-03T06:01:05;100822.09;;;1.56;100.00
7441;BME280;29616;51.950;8.572;2023-03-03T06:03:35;100826.78;;;1.69;100.00
7441;BME280;29616;51.950;8.572;2023-03-03T06:06:05;100819.41;;;1.73;100.00
7441;BME280;29616;51.950;8.572;2023-03-03T06:08:37;100826.63;;;1.72;100.00
7441;BME280;29616;51.950;8.572;2023-03-03T06:11:07;100811.94;;;1.61;100.00
7441;BME280;29616;51.950;8.572;2023-03-03T06:13:35;100792.59;;;1.53;100.00
7441;BME280;29616;51.950;8.572;2023-03-03T06:16:04;100819.22;;;1.76;100.00
7441;BME280;29616;51.950;8.572;2023-03-03T06:18:32;100815.34;;;1.64;100.00
7441;BME280;29616;51.950;8.572;2023-03-03T06:21:03;100828.44;;;1.72;100.00
7441;BME280;29616;51.950;8.572;2023-03-03T06:23:31;100831.59;;;1.80;100.00
7441;BME280;29616;51.950;8.572;2023-03-03T06:26:01;100814.19;;;1.70;100.00
7441;BME280;29616;51.950;8.572;2023-03-03T06:28:30;100811.78;;;1.64;100.00
7441;BME280;29616;51.950;8.572;2023-03-03T06:31:01;100824.31;;;1.65;100.00
7441;BME280;29616;51.950;8.572;2023-03-03T06:33:30;100823.97;;;1.71;100.00
7441;BME280;29616;51.950;8.572;2023-03-03T06:36:01;100832.78;;;1.74;100.00
7441;BME280;29616;51.950;8.572;2023-03-03T06:38:31;100841.19;;;1.68;100.00
7441;BME280;29616;51.950;8.572;2023-03-03T06:41:05;100844.91;;;1.83;100.00
7441;BME280;29616;51.950;8.572;2023-03-03T06:43:34;100829.03;;;1.60;100.00
7441;BME280;29616;51.950;8.572;2023-03-03T06:46:04;100849.22;;;1.70;100.00
7441;BME280;29616;51.950;8.572;2023-03-03T06:48:34;100853.00;;;1.66;100.00
7441;BME280;29616;51.950;8.572;2023-03-03T06:51:08;100858.47;;;1.81;100.00
7441;BME280;29616;51.950;8.572;2023-03-03T06:53:41;100861.09;;;1.83;100.00
7441;BME280;29616;51.950;8.572;2023-03-03T06:56:11;100867.19;;;1.87;100.00
7441;BME280;29616;51.950;8.572;2023-03-03T06:58:40;100856.03;;;1.94;100.00
7441;BME280;29616;51.950;8.572;2023-03-03T07:01:15;100851.00;;;1.87;100.00
7441;BME280;29616;51.950;8.572;2023-03-03T07:03:43;100862.19;;;1.96;100.00
7441;BME280;29616;51.950;8.572;2023-03-03T07:06:19;100870.81;;;2.03;100.00
7441;BME280;29616;51.950;8.572;2023-03-03T07:08:50;100872.47;;;2.05;100.00
7441;BME280;29616;51.950;8.572;2023-03-03T07:11:22;100874.59;;;2.16;100.00
7441;BME280;29616;51.950;8.572;2023-03-03T07:13:51;100866.41;;;2.02;100.00
7441;BME280;29616;51.950;8.572;2023-03-03T07:16:23;100873.03;;;2.12;100.00
7441;BME280;29616;51.950;8.572;2023-03-03T07:18:54;100886.38;;;1.98;100.00
7441;BME280;29616;51.950;8.572;2023-03-03T07:21:30;100895.97;;;2.03;100.00
7441;BME280;29616;51.950;8.572;2023-03-03T07:24:00;100890.09;;;2.12;100.00
7441;BME280;29616;51.950;8.572;2023-03-03T07:26:40;100891.97;;;2.10;100.00
7441;BME280;29616;51.950;8.572;2023-03-03T07:29:17;100904.38;;;2.14;100.00
7441;BME280;29616;51.950;8.572;2023-03-03T07:31:46;100867.44;;;1.99;100.00
7441;BME280;29616;51.950;8.572;2023-03-03T07:34:18;100904.06;;;2.20;100.00
7441;BME280;29616;51.950;8.572;2023-03-03T07:36:48;100889.16;;;1.96;100.00
7441;BME280;29616;51.950;8.572;2023-03-03T07:39:25;100907.38;;;2.25;100.00
7441;BME280;29616;51.950;8.572;2023-03-03T07:42:02;100911.47;;;2.32;100.00
7441;BME280;29616;51.950;8.572;2023-03-03T07:44:41;100915.06;;;2.33;100.00
7441;BME280;29616;51.950;8.572;2023-03-03T07:47:19;100915.94;;;2.33;100.00
7441;BME280;29616;51.950;8.572;2023-03-03T07:49:52;100918.47;;;2.36;100.00
7441;BME280;29616;51.950;8.572;2023-03-03T07:52:25;100922.75;;;2.40;100.00
7441;BME280;29616;51.950;8.572;2023-03-03T07:54:57;100911.34;;;2.18;100.00
7441;BME280;29616;51.950;8.572;2023-03-03T07:57:32;100920.13;;;2.39;100.00
7441;BME280;29616;51.950;8.572;2023-03-03T08:03:19;100927.97;;;2.61;100.00
7441;BME280;29616;51.950;8.572;2023-03-03T08:05:48;100896.09;;;2.34;100.00
7441;BME280;29616;51.950;8.572;2023-03-03T08:08:35;100934.47;;;2.57;100.00
7441;BME280;29616;51.950;8.572;2023-03-03T08:11:03;100919.19;;;2.73;100.00
7441;BME280;29616;51.950;8.572;2023-03-03T08:13:39;100909.31;;;2.72;100.00
7441;BME280;29616;51.950;8.572;2023-03-03T08:16:29;100896.72;;;2.72;100.00
7441;BME280;29616;51.950;8.572;2023-03-03T08:19:04;100908.22;;;2.76;100.00
7441;BME280;29616;51.950;8.572;2023-03-03T08:21:34;100929.69;;;2.94;100.00
7441;BME280;29616;51.950;8.572;2023-03-03T08:24:04;100931.78;;;3.05;100.00
7441;BME280;29616;51.950;8.572;2023-03-03T08:26:34;100934.38;;;3.06;100.00
7441;BME280;29616;51.950;8.572;2023-03-03T08:29:03;100931.63;;;3.08;100.00
7441;BME280;29616;51.950;8.572;2023-03-03T08:31:34;100938.50;;;3.14;100.00
7441;BME280;29616;51.950;8.572;2023-03-03T08:34:09;100930.03;;;3.20;100.00
7441;BME280;29616;51.950;8.572;2023-03-03T08:36:37;100927.88;;;3.11;100.00
7441;BME280;29616;51.950;8.572;2023-03-03T08:39:06;100935.41;;;2.88;100.00
7441;BME280;29616;51.950;8.572;2023-03-03T08:41:37;100883.22;;;2.72;100.00
7441;BME280;29616;51.950;8.572;2023-03-03T08:44:11;100934.75;;;3.00;100.00
7441;BME280;29616;51.950;8.572;2023-03-03T08:46:42;100932.72;;;3.04;100.00
7441;BME280;29616;51.950;8.572;2023-03-03T08:49:10;100927.69;;;2.98;100.00
7441;BME280;29616;51.950;8.572;2023-03-03T08:51:40;100938.28;;;3.01;100.00
7441;BME280;29616;51.950;8.572;2023-03-03T08:54:08;100913.81;;;3.04;100.00
7441;BME280;29616;51.950;8.572;2023-03-03T08:56:40;100932.41;;;3.26;100.00
7441;BME280;29616;51.950;8.572;2023-03-03T08:59:11;100930.41;;;3.29;100.00
7441;BME280;29616;51.950;8.572;2023-03-03T09:01:41;100930.06;;;3.35;100.00
7441;BME280;29616;51.950;8.572;2023-03-03T09:04:12;100938.38;;;3.62;100.00
7441;BME280;29616;51.950;8.572;2023-03-03T09:06:43;100932.66;;;3.52;100.00
7441;BME280;29616;51.950;8.572;2023-03-03T09:09:11;100940.25;;;3.61;100.00
7441;BME280;29616;51.950;8.572;2023-03-03T09:11:42;100934.72;;;3.63;100.00
7441;BME280;29616;51.950;8.572;2023-03-03T09:14:13;100925.69;;;3.48;100.00
7441;BME280;29616;51.950;8.572;2023-03-03T09:16:47;100949.22;;;3.78;100.00
7441;BME280;29616;51.950;8.572;2023-03-03T09:19:20;100924.97;;;3.60;100.00
7441;BME280;29616;51.950;8.572;2023-03-03T09:21:50;100929.84;;;3.70;100.00
7441;BME280;29616;51.950;8.572;2023-03-03T09:24:25;100934.47;;;3.67;100.00
7441;BME280;29616;51.950;8.572;2023-03-03T09:26:54;100938.38;;;3.78;100.00
7441;BME280;29616;51.950;8.572;2023-03-03T09:29:27;100948.53;;;4.04;100.00
7441;BME280;29616;51.950;8.572;2023-03-03T09:31:58;100951.97;;;4.21;100.00
7441;BME280;29616;51.950;8.572;2023-03-03T09:34:37;100927.13;;;4.15;100.00
7441;BME280;29616;51.950;8.572;2023-03-03T09:37:17;100950.31;;;4.19;100.00
7441;BME280;29616;51.950;8.572;2023-03-03T09:39:48;100949.25;;;4.21;100.00
7441;BME280;29616;51.950;8.572;2023-03-03T09:42:36;100947.56;;;4.35;100.00
7441;BME280;29616;51.950;8.572;2023-03-03T09:45:23;100953.81;;;4.79;100.00
7441;BME280;29616;51.950;8.572;2023-03-03T09:47:55;100950.91;;;4.82;100.00
7441;BME280;29616;51.950;8.572;2023-03-03T09:50:33;100948.38;;;4.93;100.00
7441;BME280;29616;51.950;8.572;2023-03-03T09:53:13;100943.91;;;5.34;100.00
7441;BME280;29616;51.950;8.572;2023-03-03T09:55:50;100927.69;;;5.61;100.00
7441;BME280;29616;51.950;8.572;2023-03-03T09:58:39;100931.91;;;5.65;100.00
7441;BME280;29616;51.950;8.572;2023-03-03T10:01:28;100952.78;;;5.50;100.00
7441;BME280;29616;51.950;8.572;2023-03-03T10:04:16;100945.06;;;5.85;100.00
7441;BME280;29616;51.950;8.572;2023-03-03T10:06:52;100956.56;;;5.48;100.00
7441;BME280;29616;51.950;8.572;2023-03-03T10:09:40;100964.38;;;6.20;100.00
7441;BME280;29616;51.950;8.572;2023-03-03T10:12:19;100952.00;;;5.89;100.00
7441;BME280;29616;51.950;8.572;2023-03-03T10:15:14;100931.19;;;5.90;100.00
7441;BME280;29616;51.950;8.572;2023-03-03T10:17:51;100922.53;;;5.57;100.00
7441;BME280;29616;51.950;8.572;2023-03-03T10:20:25;100946.09;;;5.56;100.00
7441;BME280;29616;51.950;8.572;2023-03-03T10:23:17;100941.97;;;5.77;100.00
7441;BME280;29616;51.950;8.572;2023-03-03T10:25:52;100978.81;;;5.94;100.00
7441;BME280;29616;51.950;8.572;2023-03-03T10:31:30;100973.72;;;5.89;100.00
7441;BME280;29616;51.950;8.572;2023-03-03T10:34:09;100957.25;;;5.92;100.00
7441;BME280;29616;51.950;8.572;2023-03-03T10:36:48;100986.00;;;6.22;100.00
7441;BME280;29616;51.950;8.572;2023-03-03T10:39:28;100974.63;;;6.29;100.00
7441;BME280;29616;51.950;8.572;2023-03-03T10:42:13;100970.59;;;6.35;100.00
7441;BME280;29616;51.950;8.572;2023-03-03T10:45:03;100977.41;;;6.54;100.00
7441;BME280;29616;51.950;8.572;2023-03-03T10:47:59;100983.97;;;6.38;100.00
7441;BME280;29616;51.950;8.572;2023-03-03T10:50:38;100979.31;;;6.40;100.00
7441;BME280;29616;51.950;8.572;2023-03-03T10:53:21;100978.16;;;6.82;100.00
7441;BME280;29616;51.950;8.572;2023-03-03T10:55:56;100972.94;;;6.53;100.00
7441;BME280;29616;51.950;8.572;2023-03-03T10:58:41;100968.03;;;6.46;100.00
7441;BME280;29616;51.950;8.572;2023-03-03T11:01:20;100981.00;;;6.28;100.00
7441;BME280;29616;51.950;8.572;2023-03-03T11:04:05;100982.56;;;6.45;100.00
7441;BME280;29616;51.950;8.572;2023-03-03T11:06:44;100977.81;;;6.61;100.00
7441;BME280;29616;51.950;8.572;2023-03-03T11:09:16;100977.81;;;6.61;100.00
7441;BME280;29616;51.950;8.572;2023-03-03T11:11:51;100975.53;;;6.16;100.00
7441;BME280;29616;51.950;8.572;2023-03-03T11:14:25;100980.19;;;6.40;100.00
7441;BME280;29616;51.950;8.572;2023-03-03T11:17:03;100972.63;;;6.96;100.00
7441;BME280;29616;51.950;8.572;2023-03-03T11:19:44;100964.78;;;7.29;100.00
7441;BME280;29616;51.950;8.572;2023-03-03T11:22:28;100943.75;;;7.44;100.00
7441;BME280;29616;51.950;8.572;2023-03-03T11:25:04;100968.66;;;7.38;100.00
7441;BME280;29616;51.950;8.572;2023-03-03T11:27:41;100968.38;;;6.79;100.00
7441;BME280;29616;51.950;8.572;2023-03-03T11:30:27;100965.22;;;6.85;100.00
7441;BME280;29616;51.950;8.572;2023-03-03T11:33:02;100939.03;;;6.84;100.00
7441;BME280;29616;51.950;8.572;2023-03-03T11:35:37;100955.81;;;7.52;100.00
7441;BME280;29616;51.950;8.572;2023-03-03T11:38:18;100945.53;;;8.16;100.00
7441;BME280;29616;51.950;8.572;2023-03-03T11:40:50;100961.34;;;7.87;100.00
7441;BME280;29616;51.950;8.572;2023-03-03T11:43:26;100943.53;;;8.18;100.00
7441;BME280;29616;51.950;8.572;2023-03-03T11:46:04;100949.56;;;8.69;100.00
7441;BME280;29616;51.950;8.572;2023-03-03T11:48:38;100947.63;;;9.48;100.00
7441;BME280;29616;51.950;8.572;2023-03-03T11:51:12;100941.16;;;10.03;100.00
7441;BME280;29616;51.950;8.572;2023-03-03T11:53:49;100919.16;;;10.27;100.00
7441;BME280;29616;51.950;8.572;2023-03-03T11:56:22;100937.44;;;10.04;100.00
7441;BME280;29616;51.950;8.572;2023-03-03T11:59:00;100929.94;;;10.70;100.00
7441;BME280;29616;51.950;8.572;2023-03-03T12:01:35;100935.69;;;10.46;100.00
7441;BME280;29616;51.950;8.572;2023-03-03T12:04:09;100919.38;;;10.35;100.00
7441;BME280;29616;51.950;8.572;2023-03-03T12:06:52;100934.31;;;10.09;100.00
7441;BME280;29616;51.950;8.572;2023-03-03T12:09:48;100933.38;;;9.99;100.00
7441;BME280;29616;51.950;8.572;2023-03-03T12:12:28;100878.84;;;9.34;100.00
7441;BME280;29616;51.950;8.572;2023-03-03T12:15:06;100908.31;;;9.40;100.00
7441;BME280;29616;51.950;8.572;2023-03-03T12:17:42;100924.00;;;8.47;100.00
7441;BME280;29616;51.950;8.572;2023-03-03T12:20:19;100912.66;;;9.42;100.00
7441;BME280;29616;51.950;8.572;2023-03-03T12:23:02;100902.69;;;10.38;100.00
7441;BME280;29616;51.950;8.572;2023-03-03T12:25:41;100912.47;;;10.82;100.00
7441;BME280;29616;51.950;8.572;2023-03-03T12:28:14;100902.84;;;12.07;100.00
7441;BME280;29616;51.950;8.572;2023-03-03T12:30:59;100900.44;;;12.89;100.00
7441;BME280;29616;51.950;8.572;2023-03-03T12:33:34;100900.91;;;12.84;100.00
7441;BME280;29616;51.950;8.572;2023-03-03T12:36:06;100895.00;;;12.69;100.00
7441;BME280;29616;51.950;8.572;2023-03-03T12:38:44;100882.81;;;13.65;100.00
7441;BME280;29616;51.950;8.572;2023-03-03T12:41:22;100871.53;;;13.04;97.58
7441;BME280;29616;51.950;8.572;2023-03-03T12:43:57;100888.25;;;12.64;100.00
7441;BME280;29616;51.950;8.572;2023-03-03T12:46:34;100876.44;;;11.28;100.00
7441;BME280;29616;51.950;8.572;2023-03-03T12:49:09;100893.06;;;10.23;100.00
7441;BME280;29616;51.950;8.572;2023-03-03T12:51:51;100890.38;;;10.64;100.00
7441;BME280;29616;51.950;8.572;2023-03-03T12:54:31;100885.66;;;11.95;100.00
7441;BME280;29616;51.950;8.572;2023-03-03T12:57:15;100874.56;;;11.38;100.00
7441;BME280;29616;51.950;8.572;2023-03-03T12:59:54;100884.69;;;12.15;100.00
7441;BME280;29616;51.950;8.572;2023-03-03T13:02:40;100861.88;;;12.25;100.00
7441;BME280;29616;51.950;8.572;2023-03-03T13:08:20;100861.59;;;11.89;100.00
7441;BME280;29616;51.950;8.572;2023-03-03T13:10:56;100860.84;;;13.10;100.00
7441;BME280;29616;51.950;8.572;2023-03-03T13:13:32;100856.66;;;13.61;95.70
7441;BME280;29616;51.950;8.572;2023-03-03T13:16:03;100868.22;;;13.82;97.82
7441;BME280;29616;51.950;8.572;2023-03-03T13:18:43;100853.69;;;14.34;89.95
7441;BME280;29616;51.950;8.572;2023-03-03T13:21:17;100861.75;;;14.79;82.70
7441;BME280;29616;51.950;8.572;2023-03-03T13:23:51;100846.31;;;15.20;78.31
7441;BME280;29616;51.950;8.572;2023-03-03T13:26:23;100852.47;;;15.98;75.22
7441;BME280;29616;51.950;8.572;2023-03-03T13:28:57;100858.94;;;14.71;75.11
7441;BME280;29616;51.950;8.572;2023-03-03T13:31:32;100846.13;;;15.13;76.99
7441;BME280;29616;51.950;8.572;2023-03-03T13:34:02;100848.03;;;15.47;74.49
7441;BME280;29616;51.950;8.572;2023-03-03T13:36:36;100838.03;;;14.00;82.16
7441;BME280;29616;51.950;8.572;2023-03-03T13:39:11;100857.13;;;13.56;90.01
7441;BME280;29616;51.950;8.572;2023-03-03T13:41:45;100853.50;;;12.36;100.00